Latest Weather Observations for Applethorpe

IDQ60801

Issued at 10:05 am EST Wednesday 1 October 2014 (issued every 30 minutes, with the page automatically refreshed every 10 minutes)

About weather observations | Map of weather stations | Latest weather observations for QLD | Other Formats
Station Details ID: 041175 Name: APPLETHORPE Lat: -28.62 Lon: 151.95 Height: 871.6 m
Data from the previous 72 hours. | See also: Recent months at Applethorpe
Date/Time
EST
Temp
°C
App
Temp
°C
Dew
Point
Rel
Hum
%
Delta-T
°C
Wind Press
QNH
hPa
Press
MSL
hPa
Rain
since 9 am
mm
Dir
 
Spd
km/h
Gust
km/h
Spd
kts
Gust
kts
01/10:00am 22.8 19.7 5.4 32 9.1 WSW 11 24 6 13 1019.7 1017.0 0.0
01/09:30am 21.7 18.0 6.4 37 8.1 W 15 26 8 14 1020.0 1018.5 0.0
01/09:00am 21.2 18.1 7.2 40 7.5 W 13 30 7 16 1020.0 1018.5 0.0
01/08:30am 20.6 17.5 7.1 41 7.2 W 13 26 7 14 1019.9 1018.4 0.0
01/08:00am 19.3 16.5 7.0 44 6.5 WNW 11 20 6 11 1019.7 1018.1 0.0
01/07:30am 18.1 15.8 7.5 50 5.6 W 9 20 5 11 1020.2 1018.7 0.0
01/07:00am 16.6 14.5 8.1 57 4.5 W 9 13 5 7 1020.0 1018.5 0.0
01/06:30am 15.2 13.0 7.9 61 3.8 W 9 17 5 9 1020.1 1018.6 0.0
01/06:00am 14.0 12.2 8.0 67 3.1 W 7 15 4 8 1019.8 1018.3 0.0
01/05:30am 13.7 12.5 8.1 69 2.9 W 4 9 2 5 1019.4 1017.9 0.0
01/05:00am 14.5 12.8 7.5 63 3.6 W 6 9 3 5 1019.0 1017.5 0.0
01/04:30am 15.0 13.4 7.9 62 3.7 WNW 6 11 3 6 1018.2 1016.7 0.0
01/04:00am 15.9 14.1 7.2 56 4.5 NNW 6 19 3 10 1018.0 1016.5 0.0
01/03:30am 16.6 14.5 6.5 51 5.2 WNW 7 19 4 10 1017.9 1016.4 0.0
01/03:00am 16.8 14.8 7.0 52 5.1 NNW 7 17 4 9 1017.9 1016.4 0.0
01/02:30am 17.1 15.1 6.9 51 5.3 NNW 7 19 4 10 1018.0 1016.5 0.0
01/02:00am 17.0 15.0 7.2 52 5.1 NNW 7 15 4 8 1018.3 1016.8 0.0
01/01:30am 16.8 15.4 7.4 54 4.9 NNW 4 9 2 5 1018.8 1017.3 0.0
01/01:00am 16.0 14.4 8.9 62 3.8 N 7 11 4 6 1019.1 1017.6 0.0
01/12:30am 17.0 15.4 8.6 57 4.5 N 7 15 4 8 1019.5 1018.0 0.0
01/12:00am 16.6 15.2 8.8 60 4.2 N 6 11 3 6 1019.8 1018.3 0.0
 
Date/Time
EST
Temp
°C
App
Temp
°C
Dew
Point
Rel
Hum
%
Delta-T
°C
Wind Press
QNH
hPa
Press
MSL
hPa
Rain
since 9 am
mm
Dir
 
Spd
km/h
Gust
km/h
Spd
kts
Gust
kts
30/11:30pm 14.5 13.6 9.1 70 2.9 NNE 4 9 2 5 1020.1 1018.6 0.0
30/11:00pm 15.9 14.9 9.0 63 3.7 N 4 6 2 3 1020.2 1018.7 0.0
30/10:30pm 17.4 15.7 8.2 54 4.9 N 7 15 4 8 1020.2 1018.7 0.0
30/10:00pm 18.1 16.1 7.3 49 5.7 N 7 11 4 6 1020.4 1018.9 0.0
30/09:30pm 14.4 13.3 6.7 60 3.9 NW 2 6 1 3 1020.5 1019.0 0.0
30/09:00pm 14.6 14.0 7.2 61 3.8 CALM 0 2 0 1 1020.7 1019.3 0.0
30/08:30pm 14.4 14.1 8.5 67 3.1 CALM 0 4 0 2 1020.7 1019.3 0.0
30/08:00pm 14.2 13.9 8.7 69 2.9 CALM 0 0 0 0 1020.5 1019.0 0.0
30/07:30pm 15.4 15.4 9.9 70 3.0 CALM 0 0 0 0 1020.3 1018.8 0.0
30/07:00pm 16.4 15.9 9.4 63 3.8 N 2 4 1 2 1020.2 1018.7 0.0
30/06:30pm 17.4 17.3 9.3 59 4.4 CALM 0 0 0 0 1020.0 1018.5 0.0
30/06:00pm 20.1 19.0 8.3 46 6.4 WSW 4 4 2 2 1019.8 1018.3 0.0
30/05:30pm 22.4 20.7 7.7 38 8.0 WSW 6 9 3 5 1019.5 1018.0 0.0
30/05:00pm 23.9 21.4 6.6 33 9.3 WSW 9 13 5 7 1019.4 1017.9 0.0
30/04:30pm 24.7 22.5 5.4 29 10.2 W 6 13 3 7 1019.2 1017.7 0.0
30/04:00pm 25.5 23.4 5.9 28 10.5 WSW 6 9 3 5 1019.1 1017.6 0.0
30/03:30pm 25.6 23.3 4.9 26 10.9 W 6 17 3 9 1019.2 1017.7 0.0
30/03:00pm 25.6 23.1 4.9 26 10.9 W 7 15 4 8 1019.3 1017.8 0.0
30/02:30pm 25.9 23.4 4.8 25 11.1 NW 7 15 4 8 1019.4 1017.9 0.0
30/02:00pm 25.3 23.0 5.5 28 10.5 NW 7 13 4 7 1019.8 1018.3 0.0
30/01:30pm 25.0 22.9 5.6 28 10.3 N 6 11 3 6 1019.9 1018.4 0.0
30/01:00pm 24.9 22.7 6.0 29 10.1 N 7 11 4 6 1020.2 1018.7 0.0
30/12:30pm 24.6 22.7 6.6 31 9.7 NNW 6 11 3 6 1020.7 1019.3 0.0
30/12:00pm 24.3 22.7 8.2 35 8.9 W 6 15 3 8 1021.1 1019.6 0.0
30/11:30am 24.3 23.5 9.7 39 8.3 SSW 4 7 2 4 1021.6 1020.1 0.0
30/11:00am 23.1 22.2 9.1 41 7.8 NNW 4 11 2 6 1021.8 1020.4 0.0
30/10:30am 22.2 20.7 9.1 43 7.3 W 7 17 4 9 1022.3 1020.8 0.0
30/10:00am 20.9 19.6 9.8 49 6.2 SSW 7 13 4 7 1022.6 1021.1 0.0
30/09:30am 20.3 18.6 9.9 51 5.8 WSW 9 15 5 8 1023.0 1021.6 0.0
30/09:00am 19.7 18.7 10.2 54 5.3 W 6 9 3 5 1023.2 1021.8 0.0
30/08:30am 18.3 16.4 9.1 55 5.0 WNW 9 17 5 9 1023.2 1021.8 0.0
30/08:00am 17.1 16.0 10.0 63 3.9 WSW 6 11 3 6 1023.0 1021.6 0.0
30/07:30am 14.9 14.6 10.1 73 2.6 SW 2 6 1 3 1022.9 1021.5 0.0
30/07:00am 11.8 11.7 9.3 85 1.3 CALM 0 0 0 0 1022.6 1021.1 0.0
30/06:30am 8.5 8.0 7.7 95 0.4 CALM 0 0 0 0 1022.3 1020.8 0.0
30/06:00am 6.8 5.6 6.4 97 0.2 ENE 2 4 1 2 1021.9 1020.5 0.0
30/05:30am 6.3 5.0 6.1 99 0.1 WSW 2 4 1 2 1021.6 1020.1 0.0
30/05:00am 6.8 5.9 6.2 96 0.3 CALM 0 0 0 0 1021.3 1019.8 0.0
30/04:30am 6.6 5.7 6.0 96 0.3 CALM 0 0 0 0 1021.2 1019.7 0.0
30/04:00am 6.8 6.0 6.4 97 0.2 CALM 0 0 0 0 1021.0 1019.5 0.0
30/03:30am 7.0 6.2 6.4 96 0.3 CALM 0 0 0 0 1021.0 1019.5 0.0
30/03:00am 6.9 5.4 6.7 99 0.1 WSW 4 4 2 2 1021.2 1019.7 0.0
30/02:30am 7.3 6.5 6.7 96 0.3 CALM 0 0 0 0 1021.2 1019.7 0.0
30/02:00am 7.5 6.7 6.7 95 0.4 CALM 0 0 0 0 1021.3 1019.8 0.0
30/01:30am 7.5 6.7 6.7 95 0.4 CALM 0 0 0 0 1021.3 1019.8 0.0
30/01:00am 8.0 7.3 7.0 93 0.5 CALM 0 0 0 0 1021.5 1020.0 0.0
30/12:30am 8.5 7.8 7.1 91 0.7 CALM 0 0 0 0 1021.6 1020.1 0.0
30/12:00am 8.3 7.6 6.9 91 0.7 CALM 0 0 0 0 1021.7 1020.2 0.0
 
Date/Time
EST
Temp
°C
App
Temp
°C
Dew
Point
Rel
Hum
%
Delta-T
°C
Wind Press
QNH
hPa
Press
MSL
hPa
Rain
since 9 am
mm
Dir
 
Spd
km/h
Gust
km/h
Spd
kts
Gust
kts
29/11:30pm 8.8 8.2 7.4 91 0.7 CALM 0 4 0 2 1021.8 1020.4 0.0
29/11:00pm 8.8 8.2 7.4 91 0.7 CALM 0 0 0 0 1021.9 1020.5 0.0
29/10:30pm 9.5 9.1 8.1 91 0.7 CALM 0 0 0 0 1022.0 1020.6 0.0
29/10:00pm 9.7 9.3 8.1 90 0.8 CALM 0 0 0 0 1022.0 1020.6 0.0
29/09:30pm 10.4 10.0 8.4 87 1.0 CALM 0 0 0 0 1022.0 1020.6 0.0
29/09:00pm 10.9 10.7 9.0 88 1.0 CALM 0 0 0 0 1021.9 1020.5 0.0
29/08:30pm 11.7 11.1 8.8 82 1.5 NNE 2 4 1 2 1021.9 1020.5 0.0
29/08:00pm 12.5 11.9 8.9 79 1.9 N 2 4 1 2 1021.8 1020.4 0.0
29/07:30pm 13.6 12.9 8.4 71 2.7 NNW 2 4 1 2 1021.4 1019.9 0.0
29/07:00pm 14.4 14.0 8.1 66 3.3 CALM 0 0 0 0 1021.1 1019.6 0.0
29/06:30pm 15.2 14.8 8.4 64 3.6 CALM 0 0 0 0 1020.9 1019.4 0.0
29/06:00pm 17.4 16.8 7.5 52 5.2 CALM 0 0 0 0 1020.4 1018.9 0.0
29/05:30pm 20.8 19.3 6.8 40 7.4 W 4 7 2 4 1020.2 1018.7 0.0
29/05:00pm 21.8 19.6 5.2 34 8.6 W 6 11 3 6 1020.0 1018.5 0.0
29/04:30pm 22.0 20.3 6.0 35 8.4 WNW 4 9 2 5 1019.8 1018.3 0.0
29/04:00pm 22.8 21.2 6.5 35 8.7 W 4 7 2 4 1019.5 1018.0 0.0
29/03:30pm 22.4 20.2 6.1 34 8.6 WSW 7 13 4 7 1019.5 1018.0 0.0
29/03:00pm 22.2 19.9 5.8 34 8.6 W 7 17 4 9 1019.4 1017.9 0.0
29/02:30pm 22.1 19.5 6.2 35 8.4 W 9 15 5 8 1019.5 1018.0 0.0
29/02:00pm 21.4 18.9 6.4 37 7.9 SW 9 17 5 9 1019.8 1018.3 0.0
29/01:30pm 21.4 18.7 5.4 35 8.3 WSW 9 17 5 9 1020.1 1018.6 0.0
29/01:00pm 21.2 18.0 6.7 39 7.7 SW 13 30 7 16 1020.5 1019.0 0.0
29/12:30pm 20.9 17.7 6.7 39 7.5 SW 13 22 7 12 1020.9 1019.4 0.0
29/12:00pm 20.9 19.3 8.9 46 6.6 W 7 15 4 8 1020.9 1019.4 0.0
29/11:30am 20.3 18.1 7.9 44 6.7 WSW 9 24 5 13 1021.2 1019.7 0.0
29/11:00am 19.6 16.6 7.6 45 6.4 WSW 13 22 7 12 1021.5 1020.0 0.0
29/10:30am 19.4 16.8 7.8 47 6.2 WSW 11 22 6 12 1021.9 1020.5 0.0
29/10:00am 19.7 18.0 8.4 48 6.1 WNW 7 15 4 8 1022.2 1020.7 0.0
29/09:30am 19.0 16.9 8.4 50 5.7 W 9 20 5 11 1022.4 1020.9 0.0
29/09:00am 18.2 16.5 8.3 52 5.3 N 7 11 4 6 1022.5 1021.0 0.0
29/08:30am 16.8 15.3 8.3 57 4.5 N 6 9 3 5 1022.6 1021.1 0.0
29/08:00am 14.7 13.8 9.1 69 3.0 NW 4 11 2 6 1022.6 1021.1 0.0
29/07:30am 12.2 11.3 9.2 82 1.6 NE 4 6 2 3 1022.4 1020.9 0.0
29/07:00am 10.2 10.0 9.2 93 0.5 CALM 0 2 0 1 1022.4 1020.9 0.0
29/06:30am 6.8 5.7 6.8 100 0.0 SW 2 4 1 2 1022.2 1020.7 0.0
29/06:00am 5.5 4.4 5.3 99 0.1 CALM 0 4 0 2 1021.7 1020.2 0.0
29/05:30am 5.0 3.4 4.6 97 0.2 E 2 4 1 2 1021.4 1019.9 0.0
29/05:00am 5.0 3.1 4.8 99 0.1 NE 4 4 2 2 1021.2 1019.7 0.0
29/04:30am 5.0 3.8 4.6 97 0.2 CALM 0 0 0 0 1021.0 1019.5 0.0
29/04:00am 5.2 4.0 4.5 95 0.3 CALM 0 0 0 0 1020.9 1019.4 0.0
29/03:30am 6.0 5.0 5.6 97 0.2 CALM 0 0 0 0 1020.6 1019.1 0.0
29/03:00am 5.6 4.5 5.2 97 0.2 CALM 0 2 0 1 1020.6 1019.1 0.0
29/02:30am 5.8 4.4 5.6 99 0.1 NE 2 2 1 1 1020.7 1019.3 0.0
29/02:00am 6.0 5.0 5.6 97 0.2 CALM 0 0 0 0 1021.1 1019.6 0.0
29/01:30am 6.6 5.3 6.0 96 0.3 NNE 2 4 1 2 1021.3 1019.8 0.0
29/01:00am 6.4 5.4 5.5 94 0.4 CALM 0 0 0 0 1021.7 1020.2 0.0
29/12:30am 6.7 5.4 5.9 95 0.4 NE 2 4 1 2 1022.0 1020.6 0.0
29/12:00am 7.0 5.7 5.9 93 0.5 NE 2 4 1 2 1022.5 1021.0 0.0
 
Date/Time
EST
Temp
°C
App
Temp
°C
Dew
Point
Rel
Hum
%
Delta-T
°C
Wind Press
QNH
hPa
Press
MSL
hPa
Rain
since 9 am
mm
Dir
 
Spd
km/h
Gust
km/h
Spd
kts
Gust
kts
28/11:30pm 7.3 6.0 5.8 90 0.7 NNE 2 4 1 2 1022.6 1021.1 0.0
28/11:00pm 7.5 6.7 6.5 93 0.5 CALM 0 2 0 1 1022.7 1021.2 0.0
28/10:30pm 8.0 7.1 5.9 86 1.0 CALM 0 0 0 0 1022.5 1021.0 0.0
28/10:00pm 8.4 7.6 6.5 88 0.9 CALM 0 0 0 0 1022.6 1021.1 0.0
28/09:30pm 9.3 8.0 6.2 81 1.5 NE 2 6 1 3 1022.6 1021.1 0.0
28/09:00pm 9.2 8.4 6.7 84 1.2 CALM 0 0 0 0 1022.5 1021.0 0.0
28/08:30pm 9.5 8.8 6.9 84 1.3 CALM 0 2 0 1 1022.4 1020.9 0.0
28/08:00pm 11.5 10.2 6.2 70 2.6 NE 2 4 1 2 1022.2 1020.7 0.0
28/07:30pm 11.6 10.5 6.8 72 2.4 NE 2 4 1 2 1021.9 1020.5 0.0
28/07:00pm 12.8 11.6 6.6 66 3.1 ENE 2 6 1 3 1021.6 1020.1 0.0
28/06:30pm 14.5 13.4 6.8 60 3.9 ENE 2 4 1 2 1021.4 1019.9 0.0
28/06:00pm 15.9 13.8 5.8 51 5.1 ENE 6 9 3 5 1021.3 1019.8 0.0
28/05:30pm 16.9 14.7 6.4 50 5.4 NE 7 15 4 8 1021.0 1019.5 0.0
28/05:00pm 18.0 15.8 6.1 45 6.1 ENE 7 17 4 9 1020.9 1019.4 0.0
28/04:30pm 18.7 16.6 6.6 45 6.3 NE 7 15 4 8 1020.7 1019.3 0.0
28/04:00pm 19.9 17.8 5.8 39 7.3 NE 6 9 3 5 1020.6 1019.1 0.0
28/03:30pm 18.8 17.3 4.9 40 7.0 NNE 2 6 1 3 1020.6 1019.1 0.0
28/03:00pm 18.6 17.1 5.2 41 6.8 W 2 6 1 3 1020.9 1019.4 0.0
28/02:30pm 19.7 17.5 6.0 40 7.1 N 7 15 4 8 1021.0 1019.5 0.0
28/02:00pm 19.9 17.3 6.0 40 7.2 NNE 9 17 5 9 1021.4 1019.9 0.0
28/01:30pm 19.2 17.0 6.0 42 6.8 NE 7 15 4 8 1021.6 1020.1 0.0
28/01:00pm 18.3 16.4 6.5 46 6.1 ESE 6 11 3 6 1021.7 1020.2 0.0
28/12:30pm 18.7 16.6 6.6 45 6.3 ENE 7 13 4 7 1021.9 1020.5 0.0
28/12:00pm 17.8 15.8 7.1 49 5.6 NE 7 15 4 8 1022.3 1020.8 0.0
28/11:30am 17.3 15.4 6.9 50 5.4 ENE 6 11 3 6 1022.7 1021.2 0.0
28/11:00am 17.7 15.8 6.9 49 5.6 E 6 13 3 7 1023.1 1021.7 0.0
28/10:30am 17.1 15.5 7.8 54 4.9 ENE 6 13 3 7 1023.5 1022.0 0.0

Other Formats:

Comma delimited format used in spreadsheet applications
http://www.bom.gov.au/fwo/IDQ60801/IDQ60801.94553.axf

JavaScript Object Notation format (JSON) in row-major order
http://www.bom.gov.au/fwo/IDQ60801/IDQ60801.94553.json